sensor_id;sensor_type;location;lat;lon;timestamp;temperature;humidity
50013;DHT22;35901;48.694;9.476;2023-05-16T00:02:06;7.90;99.90
50013;DHT22;35901;48.694;9.476;2023-05-16T00:04:31;7.90;99.90
50013;DHT22;35901;48.694;9.476;2023-05-16T00:06:57;7.90;99.90
50013;DHT22;35901;48.694;9.476;2023-05-16T00:09:23;7.70;99.90
50013;DHT22;35901;48.694;9.476;2023-05-16T00:11:49;7.60;99.90
50013;DHT22;35901;48.694;9.476;2023-05-16T00:14:15;7.50;99.90
50013;DHT22;35901;48.694;9.476;2023-05-16T00:16:41;7.30;99.90
50013;DHT22;35901;48.694;9.476;2023-05-16T00:19:06;7.10;99.90
50013;DHT22;35901;48.694;9.476;2023-05-16T00:21:33;7.00;99.90
50013;DHT22;35901;48.694;9.476;2023-05-16T00:23:58;6.90;99.90
50013;DHT22;35901;48.694;9.476;2023-05-16T00:26:24;6.80;99.90
50013;DHT22;35901;48.694;9.476;2023-05-16T00:28:50;6.70;99.90
50013;DHT22;35901;48.694;9.476;2023-05-16T00:31:16;6.70;99.90
50013;DHT22;35901;48.694;9.476;2023-05-16T00:33:43;6.80;99.90
50013;DHT22;35901;48.694;9.476;2023-05-16T00:36:08;6.80;99.90
50013;DHT22;35901;48.694;9.476;2023-05-16T00:38:34;6.80;99.90
50013;DHT22;35901;48.694;9.476;2023-05-16T00:41:00;6.80;99.90
50013;DHT22;35901;48.694;9.476;2023-05-16T00:43:26;6.70;99.90
50013;DHT22;35901;48.694;9.476;2023-05-16T00:45:51;6.50;99.90
50013;DHT22;35901;48.694;9.476;2023-05-16T00:48:17;6.40;99.90
50013;DHT22;35901;48.694;9.476;2023-05-16T00:50:43;6.40;99.90
50013;DHT22;35901;48.694;9.476;2023-05-16T00:53:09;6.30;99.90
50013;DHT22;35901;48.694;9.476;2023-05-16T00:55:36;6.30;99.90
50013;DHT22;35901;48.694;9.476;2023-05-16T00:58:03;6.30;99.90
50013;DHT22;35901;48.694;9.476;2023-05-16T01:00:29;6.40;99.90
50013;DHT22;35901;48.694;9.476;2023-05-16T01:02:55;6.50;99.90
50013;DHT22;35901;48.694;9.476;2023-05-16T01:05:21;6.60;99.90
50013;DHT22;35901;48.694;9.476;2023-05-16T01:07:47;6.70;99.90
50013;DHT22;35901;48.694;9.476;2023-05-16T01:10:14;6.70;99.90
50013;DHT22;35901;48.694;9.476;2023-05-16T01:13:11;6.80;99.90
50013;DHT22;35901;48.694;9.476;2023-05-16T01:16:03;6.80;99.90
50013;DHT22;35901;48.694;9.476;2023-05-16T01:21:20;6.60;99.90
50013;DHT22;35901;48.694;9.476;2023-05-16T01:24:21;6.40;99.90
50013;DHT22;35901;48.694;9.476;2023-05-16T01:26:49;6.50;99.90
50013;DHT22;35901;48.694;9.476;2023-05-16T01:29:16;6.60;99.90
50013;DHT22;35901;48.694;9.476;2023-05-16T01:31:41;6.60;99.90
50013;DHT22;35901;48.694;9.476;2023-05-16T01:34:07;6.50;99.90
50013;DHT22;35901;48.694;9.476;2023-05-16T01:36:47;6.50;99.90
50013;DHT22;35901;48.694;9.476;2023-05-16T01:39:19;6.50;99.90
50013;DHT22;35901;48.694;9.476;2023-05-16T01:42:03;6.40;99.90
50013;DHT22;35901;48.694;9.476;2023-05-16T01:44:40;6.20;99.90
50013;DHT22;35901;48.694;9.476;2023-05-16T01:47:13;6.10;99.90
50013;DHT22;35901;48.694;9.476;2023-05-16T01:50:02;6.10;99.90
50013;DHT22;35901;48.694;9.476;2023-05-16T01:52:57;6.20;99.90
50013;DHT22;35901;48.694;9.476;2023-05-16T01:55:37;6.20;99.90
50013;DHT22;35901;48.694;9.476;2023-05-16T01:58:04;6.20;99.90
50013;DHT22;35901;48.694;9.476;2023-05-16T02:00:31;6.30;99.90
50013;DHT22;35901;48.694;9.476;2023-05-16T02:02:58;6.30;99.90
50013;DHT22;35901;48.694;9.476;2023-05-16T02:05:24;6.40;99.90
50013;DHT22;35901;48.694;9.476;2023-05-16T02:07:49;6.40;99.90
50013;DHT22;35901;48.694;9.476;2023-05-16T02:10:15;6.40;99.90
50013;DHT22;35901;48.694;9.476;2023-05-16T02:12:41;6.40;99.90
50013;DHT22;35901;48.694;9.476;2023-05-16T02:15:07;6.30;99.90
50013;DHT22;35901;48.694;9.476;2023-05-16T02:17:34;6.20;99.90
50013;DHT22;35901;48.694;9.476;2023-05-16T02:20:00;6.10;99.90
50013;DHT22;35901;48.694;9.476;2023-05-16T02:22:32;6.10;99.90
50013;DHT22;35901;48.694;9.476;2023-05-16T02:25:01;6.10;99.90
50013;DHT22;35901;48.694;9.476;2023-05-16T02:27:28;6.00;99.90
50013;DHT22;35901;48.694;9.476;2023-05-16T02:29:54;6.10;99.90
50013;DHT22;35901;48.694;9.476;2023-05-16T02:32:19;6.10;99.90
50013;DHT22;35901;48.694;9.476;2023-05-16T02:34:45;6.20;99.90
50013;DHT22;35901;48.694;9.476;2023-05-16T02:37:11;6.30;99.90
50013;DHT22;35901;48.694;9.476;2023-05-16T02:39:37;6.40;99.90
50013;DHT22;35901;48.694;9.476;2023-05-16T02:42:04;6.40;99.90
50013;DHT22;35901;48.694;9.476;2023-05-16T02:44:29;6.50;99.90
50013;DHT22;35901;48.694;9.476;2023-05-16T02:46:57;6.50;99.90
50013;DHT22;35901;48.694;9.476;2023-05-16T02:49:23;6.60;99.90
50013;DHT22;35901;48.694;9.476;2023-05-16T02:51:48;6.70;99.90
50013;DHT22;35901;48.694;9.476;2023-05-16T02:54:14;6.70;99.90
50013;DHT22;35901;48.694;9.476;2023-05-16T02:56:40;6.80;99.90
50013;DHT22;35901;48.694;9.476;2023-05-16T02:59:06;6.80;99.90
50013;DHT22;35901;48.694;9.476;2023-05-16T03:01:32;6.80;99.90
50013;DHT22;35901;48.694;9.476;2023-05-16T03:03:57;6.80;99.90
50013;DHT22;35901;48.694;9.476;2023-05-16T03:06:24;6.80;99.90
50013;DHT22;35901;48.694;9.476;2023-05-16T03:08:50;6.90;99.90
50013;DHT22;35901;48.694;9.476;2023-05-16T03:11:17;6.90;99.90
50013;DHT22;35901;48.694;9.476;2023-05-16T03:13:46;7.00;99.90
50013;DHT22;35901;48.694;9.476;2023-05-16T03:16:12;7.10;99.90
50013;DHT22;35901;48.694;9.476;2023-05-16T03:18:37;7.20;99.90
50013;DHT22;35901;48.694;9.476;2023-05-16T03:21:04;7.20;99.90
50013;DHT22;35901;48.694;9.476;2023-05-16T03:23:29;7.30;99.90
50013;DHT22;35901;48.694;9.476;2023-05-16T03:25:55;7.30;99.90
50013;DHT22;35901;48.694;9.476;2023-05-16T03:28:21;7.40;99.90
50013;DHT22;35901;48.694;9.476;2023-05-16T03:30:46;7.40;99.90
50013;DHT22;35901;48.694;9.476;2023-05-16T03:33:12;7.40;99.90
50013;DHT22;35901;48.694;9.476;2023-05-16T03:35:38;7.50;99.90
50013;DHT22;35901;48.694;9.476;2023-05-16T03:38:04;7.50;99.90
50013;DHT22;35901;48.694;9.476;2023-05-16T03:40:30;7.50;99.90
50013;DHT22;35901;48.694;9.476;2023-05-16T03:42:56;7.60;99.90
50013;DHT22;35901;48.694;9.476;2023-05-16T03:45:22;7.60;99.90
50013;DHT22;35901;48.694;9.476;2023-05-16T03:47:48;7.60;99.90
50013;DHT22;35901;48.694;9.476;2023-05-16T03:50:14;7.70;99.90
50013;DHT22;35901;48.694;9.476;2023-05-16T03:52:40;7.70;99.90
50013;DHT22;35901;48.694;9.476;2023-05-16T03:55:06;7.70;99.90
50013;DHT22;35901;48.694;9.476;2023-05-16T03:57:33;7.80;99.90
50013;DHT22;35901;48.694;9.476;2023-05-16T03:59:59;7.70;99.90
50013;DHT22;35901;48.694;9.476;2023-05-16T04:02:24;7.80;99.90
50013;DHT22;35901;48.694;9.476;2023-05-16T04:04:50;7.80;99.90
50013;DHT22;35901;48.694;9.476;2023-05-16T04:07:16;7.80;99.90
50013;DHT22;35901;48.694;9.476;2023-05-16T04:09:41;7.90;99.90
50013;DHT22;35901;48.694;9.476;2023-05-16T04:12:07;7.90;99.90
50013;DHT22;35901;48.694;9.476;2023-05-16T04:14:34;8.00;99.90
50013;DHT22;35901;48.694;9.476;2023-05-16T04:17:00;8.10;99.90
50013;DHT22;35901;48.694;9.476;2023-05-16T04:19:25;8.20;99.90
50013;DHT22;35901;48.694;9.476;2023-05-16T04:21:51;8.20;99.90
50013;DHT22;35901;48.694;9.476;2023-05-16T04:24:17;8.20;99.90
50013;DHT22;35901;48.694;9.476;2023-05-16T04:26:43;8.30;99.90
50013;DHT22;35901;48.694;9.476;2023-05-16T04:29:10;8.30;99.90
50013;DHT22;35901;48.694;9.476;2023-05-16T04:31:37;8.40;99.90
50013;DHT22;35901;48.694;9.476;2023-05-16T04:34:02;8.40;99.90
50013;DHT22;35901;48.694;9.476;2023-05-16T04:36:29;8.40;99.90
50013;DHT22;35901;48.694;9.476;2023-05-16T04:38:55;8.40;99.90
50013;DHT22;35901;48.694;9.476;2023-05-16T04:41:22;8.50;99.90
50013;DHT22;35901;48.694;9.476;2023-05-16T04:43:48;8.50;99.90
50013;DHT22;35901;48.694;9.476;2023-05-16T04:46:14;8.60;99.90
50013;DHT22;35901;48.694;9.476;2023-05-16T04:48:42;8.60;99.90
50013;DHT22;35901;48.694;9.476;2023-05-16T04:51:08;8.60;99.90
50013;DHT22;35901;48.694;9.476;2023-05-16T04:53:34;8.60;99.90
50013;DHT22;35901;48.694;9.476;2023-05-16T04:56:00;8.70;99.90
50013;DHT22;35901;48.694;9.476;2023-05-16T04:58:25;8.80;99.90
50013;DHT22;35901;48.694;9.476;2023-05-16T05:00:51;8.80;99.90
50013;DHT22;35901;48.694;9.476;2023-05-16T05:03:17;8.90;99.90
50013;DHT22;35901;48.694;9.476;2023-05-16T05:05:43;8.90;99.90
50013;DHT22;35901;48.694;9.476;2023-05-16T05:08:09;8.90;99.90
50013;DHT22;35901;48.694;9.476;2023-05-16T05:10:35;9.00;99.90
50013;DHT22;35901;48.694;9.476;2023-05-16T05:13:01;9.00;99.90
50013;DHT22;35901;48.694;9.476;2023-05-16T05:15:27;9.10;99.90
50013;DHT22;35901;48.694;9.476;2023-05-16T05:17:53;9.10;99.90
50013;DHT22;35901;48.694;9.476;2023-05-16T05:20:18;9.20;99.90
50013;DHT22;35901;48.694;9.476;2023-05-16T05:22:44;9.30;99.90
50013;DHT22;35901;48.694;9.476;2023-05-16T05:25:10;9.40;99.90
50013;DHT22;35901;48.694;9.476;2023-05-16T05:27:35;9.50;99.90
50013;DHT22;35901;48.694;9.476;2023-05-16T05:30:02;9.60;99.90
50013;DHT22;35901;48.694;9.476;2023-05-16T05:32:28;9.60;99.90
50013;DHT22;35901;48.694;9.476;2023-05-16T05:34:54;9.70;99.90
50013;DHT22;35901;48.694;9.476;2023-05-16T05:37:20;9.80;99.90
50013;DHT22;35901;48.694;9.476;2023-05-16T05:39:45;9.90;99.90
50013;DHT22;35901;48.694;9.476;2023-05-16T05:42:11;10.00;99.90
50013;DHT22;35901;48.694;9.476;2023-05-16T05:44:37;10.20;99.90
50013;DHT22;35901;48.694;9.476;2023-05-16T05:47:04;10.30;99.90
50013;DHT22;35901;48.694;9.476;2023-05-16T05:49:30;10.50;99.90
50013;DHT22;35901;48.694;9.476;2023-05-16T05:51:56;10.70;99.90
50013;DHT22;35901;48.694;9.476;2023-05-16T05:54:22;10.80;99.90
50013;DHT22;35901;48.694;9.476;2023-05-16T05:56:48;10.90;99.90
50013;DHT22;35901;48.694;9.476;2023-05-16T05:59:14;11.10;99.90
50013;DHT22;35901;48.694;9.476;2023-05-16T06:01:40;11.20;99.90
50013;DHT22;35901;48.694;9.476;2023-05-16T06:04:06;11.30;99.90
50013;DHT22;35901;48.694;9.476;2023-05-16T06:06:32;11.40;99.90
50013;DHT22;35901;48.694;9.476;2023-05-16T06:08:58;11.30;99.90
50013;DHT22;35901;48.694;9.476;2023-05-16T06:11:23;11.30;99.90
50013;DHT22;35901;48.694;9.476;2023-05-16T06:13:52;11.30;99.90
50013;DHT22;35901;48.694;9.476;2023-05-16T06:16:17;11.30;99.90
50013;DHT22;35901;48.694;9.476;2023-05-16T06:18:43;11.30;99.90
50013;DHT22;35901;48.694;9.476;2023-05-16T06:21:09;11.30;99.90
50013;DHT22;35901;48.694;9.476;2023-05-16T06:23:35;11.30;99.90
50013;DHT22;35901;48.694;9.476;2023-05-16T06:26:01;11.30;99.90
50013;DHT22;35901;48.694;9.476;2023-05-16T06:28:28;11.30;99.90
50013;DHT22;35901;48.694;9.476;2023-05-16T06:30:53;11.30;99.90
50013;DHT22;35901;48.694;9.476;2023-05-16T06:33:20;11.40;99.90
50013;DHT22;35901;48.694;9.476;2023-05-16T06:35:45;11.30;99.90
50013;DHT22;35901;48.694;9.476;2023-05-16T06:38:13;11.30;99.90
50013;DHT22;35901;48.694;9.476;2023-05-16T06:40:39;11.30;99.90
50013;DHT22;35901;48.694;9.476;2023-05-16T06:43:05;11.30;99.90
50013;DHT22;35901;48.694;9.476;2023-05-16T06:45:31;11.30;99.90
50013;DHT22;35901;48.694;9.476;2023-05-16T06:47:56;11.30;99.90
50013;DHT22;35901;48.694;9.476;2023-05-16T06:50:22;11.40;99.90
50013;DHT22;35901;48.694;9.476;2023-05-16T06:52:48;11.50;99.90
50013;DHT22;35901;48.694;9.476;2023-05-16T06:55:14;11.60;99.90
50013;DHT22;35901;48.694;9.476;2023-05-16T06:57:40;11.70;99.90
50013;DHT22;35901;48.694;9.476;2023-05-16T07:00:06;11.80;99.90
50013;DHT22;35901;48.694;9.476;2023-05-16T07:02:32;11.90;99.90
50013;DHT22;35901;48.694;9.476;2023-05-16T07:04:58;12.10;99.90
50013;DHT22;35901;48.694;9.476;2023-05-16T07:07:24;12.20;99.90
50013;DHT22;35901;48.694;9.476;2023-05-16T07:09:49;12.20;99.90
50013;DHT22;35901;48.694;9.476;2023-05-16T07:12:15;12.20;99.90
50013;DHT22;35901;48.694;9.476;2023-05-16T07:14:41;12.10;99.90
50013;DHT22;35901;48.694;9.476;2023-05-16T07:17:08;12.10;99.90
50013;DHT22;35901;48.694;9.476;2023-05-16T07:19:34;12.10;99.90
50013;DHT22;35901;48.694;9.476;2023-05-16T07:22:00;12.10;99.90
50013;DHT22;35901;48.694;9.476;2023-05-16T07:24:25;12.10;99.90
50013;DHT22;35901;48.694;9.476;2023-05-16T07:26:51;12.10;99.90
50013;DHT22;35901;48.694;9.476;2023-05-16T07:29:17;12.10;99.90
50013;DHT22;35901;48.694;9.476;2023-05-16T07:31:43;12.20;99.90
50013;DHT22;35901;48.694;9.476;2023-05-16T07:34:09;12.20;99.90
50013;DHT22;35901;48.694;9.476;2023-05-16T07:36:35;12.10;99.90
50013;DHT22;35901;48.694;9.476;2023-05-16T07:39:01;12.20;99.90
50013;DHT22;35901;48.694;9.476;2023-05-16T07:41:28;12.10;99.90
50013;DHT22;35901;48.694;9.476;2023-05-16T07:43:54;12.00;99.90
50013;DHT22;35901;48.694;9.476;2023-05-16T07:46:19;11.90;99.90
50013;DHT22;35901;48.694;9.476;2023-05-16T07:48:45;11.80;99.90
50013;DHT22;35901;48.694;9.476;2023-05-16T07:51:11;11.80;99.90
50013;DHT22;35901;48.694;9.476;2023-05-16T07:53:36;11.70;99.90
50013;DHT22;35901;48.694;9.476;2023-05-16T07:56:02;11.60;99.90
50013;DHT22;35901;48.694;9.476;2023-05-16T07:58:28;11.60;99.90
50013;DHT22;35901;48.694;9.476;2023-05-16T08:00:54;11.60;99.90
50013;DHT22;35901;48.694;9.476;2023-05-16T08:03:20;11.60;99.90
50013;DHT22;35901;48.694;9.476;2023-05-16T08:05:45;11.50;99.90
50013;DHT22;35901;48.694;9.476;2023-05-16T08:08:13;11.60;99.90
50013;DHT22;35901;48.694;9.476;2023-05-16T08:10:38;11.60;99.90
50013;DHT22;35901;48.694;9.476;2023-05-16T08:13:04;11.60;99.90
50013;DHT22;35901;48.694;9.476;2023-05-16T08:15:30;11.70;99.90
50013;DHT22;35901;48.694;9.476;2023-05-16T08:17:59;11.80;99.90
50013;DHT22;35901;48.694;9.476;2023-05-16T08:20:25;11.80;99.90
50013;DHT22;35901;48.694;9.476;2023-05-16T08:22:51;11.80;99.90
50013;DHT22;35901;48.694;9.476;2023-05-16T08:25:17;11.90;99.90
50013;DHT22;35901;48.694;9.476;2023-05-16T08:27:44;11.90;99.90
50013;DHT22;35901;48.694;9.476;2023-05-16T08:30:11;11.90;99.90
50013;DHT22;35901;48.694;9.476;2023-05-16T08:32:37;12.00;99.90
50013;DHT22;35901;48.694;9.476;2023-05-16T08:35:03;12.00;99.90
50013;DHT22;35901;48.694;9.476;2023-05-16T08:37:29;12.00;99.90
50013;DHT22;35901;48.694;9.476;2023-05-16T08:39:55;12.00;99.90
50013;DHT22;35901;48.694;9.476;2023-05-16T08:42:20;11.90;99.90
50013;DHT22;35901;48.694;9.476;2023-05-16T08:44:46;11.90;99.90
50013;DHT22;35901;48.694;9.476;2023-05-16T08:47:19;11.90;99.90
50013;DHT22;35901;48.694;9.476;2023-05-16T08:49:50;11.80;99.90
50013;DHT22;35901;48.694;9.476;2023-05-16T08:52:18;11.80;99.90
50013;DHT22;35901;48.694;9.476;2023-05-16T08:54:45;11.80;99.90
50013;DHT22;35901;48.694;9.476;2023-05-16T08:57:12;11.80;99.90
50013;DHT22;35901;48.694;9.476;2023-05-16T08:59:39;11.80;99.90
50013;DHT22;35901;48.694;9.476;2023-05-16T09:02:05;11.90;99.90
50013;DHT22;35901;48.694;9.476;2023-05-16T09:04:31;11.90;99.90
50013;DHT22;35901;48.694;9.476;2023-05-16T09:06:56;11.90;99.90
50013;DHT22;35901;48.694;9.476;2023-05-16T09:09:23;11.90;99.90
50013;DHT22;35901;48.694;9.476;2023-05-16T09:11:48;11.90;99.90
50013;DHT22;35901;48.694;9.476;2023-05-16T09:14:14;11.90;99.90
50013;DHT22;35901;48.694;9.476;2023-05-16T09:16:40;12.00;99.90
50013;DHT22;35901;48.694;9.476;2023-05-16T09:19:05;12.00;99.90
50013;DHT22;35901;48.694;9.476;2023-05-16T09:21:33;12.00;99.90
50013;DHT22;35901;48.694;9.476;2023-05-16T09:24:07;12.10;99.90
50013;DHT22;35901;48.694;9.476;2023-05-16T09:26:37;12.20;99.90
50013;DHT22;35901;48.694;9.476;2023-05-16T09:29:21;12.20;99.90
50013;DHT22;35901;48.694;9.476;2023-05-16T09:31:48;12.10;99.90
50013;DHT22;35901;48.694;9.476;2023-05-16T09:34:14;12.10;99.90
50013;DHT22;35901;48.694;9.476;2023-05-16T09:36:40;12.00;99.90
50013;DHT22;35901;48.694;9.476;2023-05-16T09:39:06;12.00;99.90
50013;DHT22;35901;48.694;9.476;2023-05-16T09:41:33;12.00;99.90
50013;DHT22;35901;48.694;9.476;2023-05-16T09:44:03;12.00;99.90
50013;DHT22;35901;48.694;9.476;2023-05-16T09:46:28;12.00;99.90
50013;DHT22;35901;48.694;9.476;2023-05-16T09:48:54;12.00;99.90
50013;DHT22;35901;48.694;9.476;2023-05-16T09:51:21;12.00;99.90
50013;DHT22;35901;48.694;9.476;2023-05-16T09:53:47;12.00;99.90
50013;DHT22;35901;48.694;9.476;2023-05-16T09:56:14;12.00;99.90
50013;DHT22;35901;48.694;9.476;2023-05-16T09:58:42;12.00;99.90
50013;DHT22;35901;48.694;9.476;2023-05-16T10:01:09;12.00;99.90
50013;DHT22;35901;48.694;9.476;2023-05-16T10:03:36;12.00;99.90
50013;DHT22;35901;48.694;9.476;2023-05-16T10:06:03;12.10;99.90
50013;DHT22;35901;48.694;9.476;2023-05-16T10:08:31;12.10;99.90
50013;DHT22;35901;48.694;9.476;2023-05-16T10:11:01;12.20;99.90
50013;DHT22;35901;48.694;9.476;2023-05-16T10:13:30;12.20;99.90
50013;DHT22;35901;48.694;9.476;2023-05-16T10:15:59;12.30;99.90
50013;DHT22;35901;48.694;9.476;2023-05-16T10:18:31;12.40;99.90
50013;DHT22;35901;48.694;9.476;2023-05-16T10:21:04;12.50;99.90
50013;DHT22;35901;48.694;9.476;2023-05-16T10:23:32;12.60;99.90
50013;DHT22;35901;48.694;9.476;2023-05-16T10:26:00;12.70;99.90
50013;DHT22;35901;48.694;9.476;2023-05-16T10:28:27;12.80;99.90
50013;DHT22;35901;48.694;9.476;2023-05-16T10:30:54;12.90;99.90
50013;DHT22;35901;48.694;9.476;2023-05-16T10:33:20;13.00;99.90
50013;DHT22;35901;48.694;9.476;2023-05-16T10:35:46;13.00;99.90
50013;DHT22;35901;48.694;9.476;2023-05-16T10:38:15;13.00;99.90
50013;DHT22;35901;48.694;9.476;2023-05-16T10:40:41;12.90;99.90
50013;DHT22;35901;48.694;9.476;2023-05-16T10:43:08;12.90;99.90
50013;DHT22;35901;48.694;9.476;2023-05-16T10:45:38;12.90;99.90
50013;DHT22;35901;48.694;9.476;2023-05-16T10:48:04;12.70;99.90
50013;DHT22;35901;48.694;9.476;2023-05-16T10:50:39;12.70;99.90
50013;DHT22;35901;48.694;9.476;2023-05-16T10:53:21;12.70;99.90
50013;DHT22;35901;48.694;9.476;2023-05-16T11:01:26;12.60;99.90
50013;DHT22;35901;48.694;9.476;2023-05-16T11:06:27;12.50;99.90
50013;DHT22;35901;48.694;9.476;2023-05-16T11:19:28;12.80;99.90
50013;DHT22;35901;48.694;9.476;2023-05-16T11:24:34;12.80;99.90
50013;DHT22;35901;48.694;9.476;2023-05-16T11:27:01;12.80;99.90
50013;DHT22;35901;48.694;9.476;2023-05-16T11:29:36;12.80;99.90
50013;DHT22;35901;48.694;9.476;2023-05-16T11:32:03;12.90;99.90
50013;DHT22;35901;48.694;9.476;2023-05-16T11:34:30;12.90;99.90
50013;DHT22;35901;48.694;9.476;2023-05-16T11:36:56;13.00;99.90
50013;DHT22;35901;48.694;9.476;2023-05-16T11:39:22;13.00;99.90
50013;DHT22;35901;48.694;9.476;2023-05-16T11:41:52;13.00;99.90
50013;DHT22;35901;48.694;9.476;2023-05-16T11:44:18;13.10;99.90
50013;DHT22;35901;48.694;9.476;2023-05-16T11:46:44;13.20;99.90
50013;DHT22;35901;48.694;9.476;2023-05-16T11:49:11;13.30;99.90
50013;DHT22;35901;48.694;9.476;2023-05-16T11:51:40;13.30;99.90
50013;DHT22;35901;48.694;9.476;2023-05-16T11:54:11;13.30;99.90
50013;DHT22;35901;48.694;9.476;2023-05-16T11:56:38;13.30;99.90
50013;DHT22;35901;48.694;9.476;2023-05-16T11:59:05;13.20;99.90
50013;DHT22;35901;48.694;9.476;2023-05-16T12:01:35;13.10;99.90
50013;DHT22;35901;48.694;9.476;2023-05-16T12:04:07;12.90;99.90
50013;DHT22;35901;48.694;9.476;2023-05-16T12:06:34;12.60;99.90
50013;DHT22;35901;48.694;9.476;2023-05-16T12:08:59;12.50;99.90
50013;DHT22;35901;48.694;9.476;2023-05-16T12:11:29;12.40;99.90
50013;DHT22;35901;48.694;9.476;2023-05-16T12:13:55;12.20;99.90
50013;DHT22;35901;48.694;9.476;2023-05-16T12:16:22;12.20;99.90
50013;DHT22;35901;48.694;9.476;2023-05-16T12:18:47;12.10;99.90
50013;DHT22;35901;48.694;9.476;2023-05-16T12:21:14;12.00;99.90
50013;DHT22;35901;48.694;9.476;2023-05-16T12:23:41;12.00;99.90
50013;DHT22;35901;48.694;9.476;2023-05-16T12:26:07;11.90;99.90
50013;DHT22;35901;48.694;9.476;2023-05-16T12:28:34;11.90;99.90
50013;DHT22;35901;48.694;9.476;2023-05-16T12:31:01;11.90;99.90
50013;DHT22;35901;48.694;9.476;2023-05-16T12:33:27;12.00;99.90
50013;DHT22;35901;48.694;9.476;2023-05-16T12:35:53;12.00;99.90
50013;DHT22;35901;48.694;9.476;2023-05-16T12:38:20;11.90;99.90
50013;DHT22;35901;48.694;9.476;2023-05-16T12:40:46;11.90;99.90
50013;DHT22;35901;48.694;9.476;2023-05-16T12:43:19;11.90;99.90
50013;DHT22;35901;48.694;9.476;2023-05-16T12:45:50;11.80;99.90
50013;DHT22;35901;48.694;9.476;2023-05-16T12:48:17;11.70;99.90
50013;DHT22;35901;48.694;9.476;2023-05-16T12:50:43;11.70;99.90
50013;DHT22;35901;48.694;9.476;2023-05-16T12:53:12;11.70;99.90
50013;DHT22;35901;48.694;9.476;2023-05-16T12:55:38;11.60;99.90
50013;DHT22;35901;48.694;9.476;2023-05-16T12:58:04;11.60;99.90
50013;DHT22;35901;48.694;9.476;2023-05-16T13:00:30;11.60;99.90
50013;DHT22;35901;48.694;9.476;2023-05-16T13:02:56;11.60;99.90
50013;DHT22;35901;48.694;9.476;2023-05-16T13:05:24;11.60;99.90
50013;DHT22;35901;48.694;9.476;2023-05-16T13:07:50;11.50;99.90
50013;DHT22;35901;48.694;9.476;2023-05-16T13:10:17;11.50;99.90
50013;DHT22;35901;48.694;9.476;2023-05-16T13:12:43;11.50;99.90
50013;DHT22;35901;48.694;9.476;2023-05-16T13:15:10;11.50;99.90
50013;DHT22;35901;48.694;9.476;2023-05-16T13:17:40;11.50;99.90
50013;DHT22;35901;48.694;9.476;2023-05-16T13:20:07;11.50;99.90
50013;DHT22;35901;48.694;9.476;2023-05-16T13:22:37;11.60;99.90
50013;DHT22;35901;48.694;9.476;2023-05-16T13:25:04;11.70;99.90
50013;DHT22;35901;48.694;9.476;2023-05-16T13:27:31;11.70;99.90
50013;DHT22;35901;48.694;9.476;2023-05-16T13:29:57;11.80;99.90
50013;DHT22;35901;48.694;9.476;2023-05-16T13:32:23;11.90;99.90
50013;DHT22;35901;48.694;9.476;2023-05-16T13:34:50;12.00;99.90
50013;DHT22;35901;48.694;9.476;2023-05-16T13:37:17;12.00;99.90
50013;DHT22;35901;48.694;9.476;2023-05-16T13:39:43;12.00;99.90
50013;DHT22;35901;48.694;9.476;2023-05-16T13:42:10;12.00;99.90
50013;DHT22;35901;48.694;9.476;2023-05-16T13:44:36;12.10;99.90
50013;DHT22;35901;48.694;9.476;2023-05-16T13:47:06;12.10;99.90
50013;DHT22;35901;48.694;9.476;2023-05-16T13:49:32;12.20;99.90
50013;DHT22;35901;48.694;9.476;2023-05-16T13:51:57;12.30;99.90
50013;DHT22;35901;48.694;9.476;2023-05-16T13:54:26;12.40;99.90
50013;DHT22;35901;48.694;9.476;2023-05-16T13:56:51;12.40;99.90
50013;DHT22;35901;48.694;9.476;2023-05-16T13:59:17;12.50;99.90
50013;DHT22;35901;48.694;9.476;2023-05-16T14:01:43;12.60;99.90
50013;DHT22;35901;48.694;9.476;2023-05-16T14:04:09;12.60;99.90
50013;DHT22;35901;48.694;9.476;2023-05-16T14:06:34;12.70;99.90
50013;DHT22;35901;48.694;9.476;2023-05-16T14:09:00;12.70;99.90
50013;DHT22;35901;48.694;9.476;2023-05-16T14:11:26;12.60;99.90
50013;DHT22;35901;48.694;9.476;2023-05-16T14:13:52;12.60;99.90
50013;DHT22;35901;48.694;9.476;2023-05-16T14:16:18;12.60;99.90
50013;DHT22;35901;48.694;9.476;2023-05-16T14:18:44;12.50;99.90
50013;DHT22;35901;48.694;9.476;2023-05-16T14:21:09;12.40;99.90
50013;DHT22;35901;48.694;9.476;2023-05-16T14:23:35;12.20;99.90
50013;DHT22;35901;48.694;9.476;2023-05-16T14:26:01;12.10;99.90
50013;DHT22;35901;48.694;9.476;2023-05-16T14:28:27;12.00;99.90
50013;DHT22;35901;48.694;9.476;2023-05-16T14:30:53;12.00;99.90
50013;DHT22;35901;48.694;9.476;2023-05-16T14:33:19;11.90;99.90
50013;DHT22;35901;48.694;9.476;2023-05-16T14:35:45;11.80;99.90
50013;DHT22;35901;48.694;9.476;2023-05-16T14:38:15;11.70;99.90
50013;DHT22;35901;48.694;9.476;2023-05-16T14:40:40;11.70;99.90
50013;DHT22;35901;48.694;9.476;2023-05-16T14:43:06;11.60;99.90
50013;DHT22;35901;48.694;9.476;2023-05-16T14:45:32;11.60;99.90
50013;DHT22;35901;48.694;9.476;2023-05-16T14:47:58;11.50;99.90
50013;DHT22;35901;48.694;9.476;2023-05-16T14:50:23;11.50;99.90
50013;DHT22;35901;48.694;9.476;2023-05-16T14:52:49;11.50;99.90
50013;DHT22;35901;48.694;9.476;2023-05-16T14:55:15;11.40;99.90
50013;DHT22;35901;48.694;9.476;2023-05-16T14:57:41;11.40;99.90
50013;DHT22;35901;48.694;9.476;2023-05-16T15:00:07;11.40;99.90
50013;DHT22;35901;48.694;9.476;2023-05-16T15:02:35;11.40;99.90
50013;DHT22;35901;48.694;9.476;2023-05-16T15:05:00;11.40;99.90
50013;DHT22;35901;48.694;9.476;2023-05-16T15:07:26;11.50;99.90
50013;DHT22;35901;48.694;9.476;2023-05-16T15:09:52;11.50;99.90
50013;DHT22;35901;48.694;9.476;2023-05-16T15:12:17;11.50;99.90
50013;DHT22;35901;48.694;9.476;2023-05-16T15:14:43;11.50;99.90
50013;DHT22;35901;48.694;9.476;2023-05-16T15:17:09;11.50;99.90
50013;DHT22;35901;48.694;9.476;2023-05-16T15:19:35;11.60;99.90
50013;DHT22;35901;48.694;9.476;2023-05-16T15:22:00;11.60;99.90
50013;DHT22;35901;48.694;9.476;2023-05-16T15:24:26;11.70;99.90
50013;DHT22;35901;48.694;9.476;2023-05-16T15:26:52;11.70;99.90
50013;DHT22;35901;48.694;9.476;2023-05-16T15:29:18;11.70;99.90
50013;DHT22;35901;48.694;9.476;2023-05-16T15:31:44;11.70;99.90
50013;DHT22;35901;48.694;9.476;2023-05-16T15:34:10;11.70;99.90
50013;DHT22;35901;48.694;9.476;2023-05-16T15:36:36;11.60;99.90
50013;DHT22;35901;48.694;9.476;2023-05-16T15:39:02;11.60;99.90
50013;DHT22;35901;48.694;9.476;2023-05-16T15:41:28;11.50;99.90
50013;DHT22;35901;48.694;9.476;2023-05-16T15:43:54;11.50;99.90
50013;DHT22;35901;48.694;9.476;2023-05-16T15:46:19;11.40;99.90
50013;DHT22;35901;48.694;9.476;2023-05-16T15:48:45;11.40;99.90
50013;DHT22;35901;48.694;9.476;2023-05-16T15:51:11;11.40;99.90
50013;DHT22;35901;48.694;9.476;2023-05-16T15:53:38;11.40;99.90
50013;DHT22;35901;48.694;9.476;2023-05-16T15:56:04;11.40;99.90
50013;DHT22;35901;48.694;9.476;2023-05-16T15:58:30;11.40;99.90
50013;DHT22;35901;48.694;9.476;2023-05-16T16:00:56;11.40;99.90